aviador You're here:

PACV Decoded Metar

CORDOVA in AK, USA
Report Time2017-06-25 19:53:00
UTC Time2017-06-25 20:46:50
Flight Rules vfr VFR
Wind250° at 07 kt
W.Decomp.*RWY 27: 5.4 kt HW 4.4 kt LCW
RWY 16: 2.3 kt HW 6.6 kt RCW
W.Rank250° ranks 12
Current wind is above 250° avg. (5.0)
Visibility9999 m
Phenomena:N/A
Clouds:Few 025 Hf
Scattered 090 Hf
Expected CloudBase > 3,200 ft AGL from Temp-Dew spread
CeilingNone
Temp17°C (ISA +2)
Dew Point09°C (59% RH)
AAT14.2°C
QNH1015 hPa
Density Alt371 ft
Elevation39 ft
Report Wrong Elevation
Raw Report
PACV 251953Z 25007KT 10SM FEW025 SCT090 17/09 A2997 RMK AO2 SLP150
T01670094 $=

Extra information for PACV:More info

Metar Taf Metar & Taf Last 4 Metars F.Rules Stats Wind Profile Meteogram Temp Stats Airport Information Weather charts Add Link Nearby VenuesMetar ALERT Operation Metar Decoded Social comments

AIRNAV info for PACV